sensor_id;sensor_type;location;lat;lon;timestamp;P1;durP1;ratioP1;P2;durP2;ratioP2
18304;SDS011;9278;52.156;21.048;2022-08-01T00:00:07;9.68;;;6.10;;
18304;SDS011;9278;52.156;21.048;2022-08-01T00:02:37;10.88;;;5.95;;
18304;SDS011;9278;52.156;21.048;2022-08-01T00:05:06;9.85;;;6.03;;
18304;SDS011;9278;52.156;21.048;2022-08-01T00:07:37;8.00;;;6.50;;
18304;SDS011;9278;52.156;21.048;2022-08-01T00:10:07;8.38;;;5.10;;
18304;SDS011;9278;52.156;21.048;2022-08-01T00:12:38;9.43;;;5.63;;
18304;SDS011;9278;52.156;21.048;2022-08-01T00:15:07;13.90;;;5.72;;
18304;SDS011;9278;52.156;21.048;2022-08-01T00:17:37;9.07;;;5.50;;
18304;SDS011;9278;52.156;21.048;2022-08-01T00:20:06;6.93;;;5.75;;
18304;SDS011;9278;52.156;21.048;2022-08-01T00:22:37;7.25;;;5.45;;
18304;SDS011;9278;52.156;21.048;2022-08-01T00:25:07;7.80;;;4.85;;
18304;SDS011;9278;52.156;21.048;2022-08-01T00:27:36;9.65;;;5.25;;
18304;SDS011;9278;52.156;21.048;2022-08-01T00:30:04;7.95;;;5.40;;
18304;SDS011;9278;52.156;21.048;2022-08-01T00:32:39;8.00;;;5.03;;
18304;SDS011;9278;52.156;21.048;2022-08-01T00:35:08;7.32;;;4.90;;
18304;SDS011;9278;52.156;21.048;2022-08-01T00:37:36;10.00;;;5.13;;
18304;SDS011;9278;52.156;21.048;2022-08-01T00:40:06;11.68;;;6.05;;
18304;SDS011;9278;52.156;21.048;2022-08-01T00:42:35;8.32;;;4.85;;
18304;SDS011;9278;52.156;21.048;2022-08-01T00:45:09;7.82;;;5.00;;
18304;SDS011;9278;52.156;21.048;2022-08-01T00:47:38;8.77;;;4.88;;
18304;SDS011;9278;52.156;21.048;2022-08-01T00:50:06;5.75;;;5.03;;
18304;SDS011;9278;52.156;21.048;2022-08-01T00:52:36;6.60;;;5.15;;
18304;SDS011;9278;52.156;21.048;2022-08-01T00:55:08;11.48;;;4.82;;
18304;SDS011;9278;52.156;21.048;2022-08-01T00:57:40;7.18;;;4.93;;
18304;SDS011;9278;52.156;21.048;2022-08-01T01:00:29;8.52;;;5.32;;
18304;SDS011;9278;52.156;21.048;2022-08-01T01:03:18;8.73;;;5.32;;
18304;SDS011;9278;52.156;21.048;2022-08-01T01:05:52;8.57;;;5.40;;
18304;SDS011;9278;52.156;21.048;2022-08-01T01:08:35;7.43;;;5.35;;
18304;SDS011;9278;52.156;21.048;2022-08-01T01:11:10;6.40;;;5.07;;
18304;SDS011;9278;52.156;21.048;2022-08-01T01:13:45;7.95;;;5.05;;
18304;SDS011;9278;52.156;21.048;2022-08-01T01:16:17;10.32;;;6.03;;
18304;SDS011;9278;52.156;21.048;2022-08-01T01:18:47;7.72;;;5.45;;
18304;SDS011;9278;52.156;21.048;2022-08-01T01:21:30;9.43;;;5.82;;
18304;SDS011;9278;52.156;21.048;2022-08-01T01:24:11;10.15;;;5.90;;
18304;SDS011;9278;52.156;21.048;2022-08-01T01:26:49;12.68;;;5.55;;
18304;SDS011;9278;52.156;21.048;2022-08-01T01:29:27;9.20;;;5.85;;
18304;SDS011;9278;52.156;21.048;2022-08-01T01:32:18;9.48;;;6.13;;
18304;SDS011;9278;52.156;21.048;2022-08-01T01:34:56;12.23;;;6.03;;
18304;SDS011;9278;52.156;21.048;2022-08-01T01:37:26;11.40;;;6.38;;
18304;SDS011;9278;52.156;21.048;2022-08-01T01:39:57;9.05;;;5.97;;
18304;SDS011;9278;52.156;21.048;2022-08-01T01:42:27;9.77;;;5.47;;
18304;SDS011;9278;52.156;21.048;2022-08-01T01:44:58;11.85;;;5.70;;
18304;SDS011;9278;52.156;21.048;2022-08-01T01:47:30;10.48;;;5.43;;
18304;SDS011;9278;52.156;21.048;2022-08-01T01:50:00;13.23;;;5.75;;
18304;SDS011;9278;52.156;21.048;2022-08-01T01:52:29;13.23;;;5.60;;
18304;SDS011;9278;52.156;21.048;2022-08-01T01:54:59;10.90;;;5.97;;
18304;SDS011;9278;52.156;21.048;2022-08-01T01:57:31;9.95;;;5.85;;
18304;SDS011;9278;52.156;21.048;2022-08-01T02:00:04;12.30;;;5.80;;
18304;SDS011;9278;52.156;21.048;2022-08-01T02:02:36;13.57;;;5.93;;
18304;SDS011;9278;52.156;21.048;2022-08-01T02:05:05;17.17;;;5.57;;
18304;SDS011;9278;52.156;21.048;2022-08-01T02:07:35;9.73;;;5.63;;
18304;SDS011;9278;52.156;21.048;2022-08-01T02:10:04;9.90;;;5.72;;
18304;SDS011;9278;52.156;21.048;2022-08-01T02:12:34;10.15;;;5.95;;
18304;SDS011;9278;52.156;21.048;2022-08-01T02:15:07;10.00;;;5.50;;
18304;SDS011;9278;52.156;21.048;2022-08-01T02:17:37;10.63;;;5.75;;
18304;SDS011;9278;52.156;21.048;2022-08-01T02:20:10;8.55;;;6.10;;
18304;SDS011;9278;52.156;21.048;2022-08-01T02:22:40;11.32;;;5.78;;
18304;SDS011;9278;52.156;21.048;2022-08-01T02:25:20;10.70;;;6.05;;
18304;SDS011;9278;52.156;21.048;2022-08-01T02:27:54;11.35;;;5.60;;
18304;SDS011;9278;52.156;21.048;2022-08-01T02:30:29;11.57;;;6.35;;
18304;SDS011;9278;52.156;21.048;2022-08-01T02:33:02;13.15;;;6.13;;
18304;SDS011;9278;52.156;21.048;2022-08-01T02:35:41;10.40;;;6.10;;
18304;SDS011;9278;52.156;21.048;2022-08-01T02:38:34;14.27;;;6.03;;
18304;SDS011;9278;52.156;21.048;2022-08-01T02:41:06;10.00;;;5.88;;
18304;SDS011;9278;52.156;21.048;2022-08-01T02:43:36;11.82;;;6.18;;
18304;SDS011;9278;52.156;21.048;2022-08-01T02:46:11;13.50;;;6.82;;
18304;SDS011;9278;52.156;21.048;2022-08-01T02:48:43;13.27;;;6.53;;
18304;SDS011;9278;52.156;21.048;2022-08-01T02:51:13;10.02;;;6.20;;
18304;SDS011;9278;52.156;21.048;2022-08-01T02:53:43;12.27;;;6.68;;
18304;SDS011;9278;52.156;21.048;2022-08-01T02:56:12;14.77;;;7.20;;
18304;SDS011;9278;52.156;21.048;2022-08-01T02:58:42;11.63;;;6.70;;
18304;SDS011;9278;52.156;21.048;2022-08-01T03:01:14;11.82;;;7.53;;
18304;SDS011;9278;52.156;21.048;2022-08-01T03:03:45;12.80;;;7.28;;
18304;SDS011;9278;52.156;21.048;2022-08-01T03:06:14;10.90;;;8.07;;
18304;SDS011;9278;52.156;21.048;2022-08-01T03:08:44;12.60;;;8.10;;
18304;SDS011;9278;52.156;21.048;2022-08-01T03:11:16;12.00;;;7.05;;
18304;SDS011;9278;52.156;21.048;2022-08-01T03:13:45;12.95;;;7.57;;
18304;SDS011;9278;52.156;21.048;2022-08-01T03:16:17;14.43;;;8.40;;
18304;SDS011;9278;52.156;21.048;2022-08-01T03:18:48;15.65;;;8.05;;
18304;SDS011;9278;52.156;21.048;2022-08-01T03:21:17;13.13;;;8.02;;
18304;SDS011;9278;52.156;21.048;2022-08-01T03:23:47;14.70;;;8.10;;
18304;SDS011;9278;52.156;21.048;2022-08-01T03:26:20;14.90;;;8.45;;
18304;SDS011;9278;52.156;21.048;2022-08-01T03:28:49;13.02;;;7.65;;
18304;SDS011;9278;52.156;21.048;2022-08-01T03:31:22;18.35;;;8.05;;
18304;SDS011;9278;52.156;21.048;2022-08-01T03:33:52;17.02;;;7.57;;
18304;SDS011;9278;52.156;21.048;2022-08-01T03:36:21;13.32;;;7.85;;
18304;SDS011;9278;52.156;21.048;2022-08-01T03:38:53;16.98;;;7.38;;
18304;SDS011;9278;52.156;21.048;2022-08-01T03:41:24;10.90;;;7.60;;
18304;SDS011;9278;52.156;21.048;2022-08-01T03:43:56;17.17;;;7.15;;
18304;SDS011;9278;52.156;21.048;2022-08-01T03:46:32;13.30;;;7.65;;
18304;SDS011;9278;52.156;21.048;2022-08-01T03:49:06;13.85;;;7.45;;
18304;SDS011;9278;52.156;21.048;2022-08-01T03:51:38;16.48;;;7.72;;
18304;SDS011;9278;52.156;21.048;2022-08-01T03:54:07;9.80;;;7.13;;
18304;SDS011;9278;52.156;21.048;2022-08-01T03:56:37;13.00;;;7.40;;
18304;SDS011;9278;52.156;21.048;2022-08-01T03:59:07;16.90;;;8.02;;
18304;SDS011;9278;52.156;21.048;2022-08-01T04:01:38;15.23;;;7.57;;
18304;SDS011;9278;52.156;21.048;2022-08-01T04:04:07;15.35;;;8.07;;
18304;SDS011;9278;52.156;21.048;2022-08-01T04:06:37;16.92;;;7.95;;
18304;SDS011;9278;52.156;21.048;2022-08-01T04:09:06;14.90;;;8.35;;
18304;SDS011;9278;52.156;21.048;2022-08-01T04:11:39;14.73;;;9.43;;
18304;SDS011;9278;52.156;21.048;2022-08-01T04:14:08;12.23;;;8.50;;
18304;SDS011;9278;52.156;21.048;2022-08-01T04:16:36;10.88;;;7.88;;
18304;SDS011;9278;52.156;21.048;2022-08-01T04:19:06;14.88;;;8.30;;
18304;SDS011;9278;52.156;21.048;2022-08-01T04:21:35;18.38;;;7.57;;
18304;SDS011;9278;52.156;21.048;2022-08-01T04:24:06;17.90;;;8.02;;
18304;SDS011;9278;52.156;21.048;2022-08-01T04:26:38;11.90;;;8.07;;
18304;SDS011;9278;52.156;21.048;2022-08-01T04:29:08;16.50;;;8.48;;
18304;SDS011;9278;52.156;21.048;2022-08-01T04:31:40;12.40;;;8.48;;
18304;SDS011;9278;52.156;21.048;2022-08-01T04:34:11;13.85;;;8.25;;
18304;SDS011;9278;52.156;21.048;2022-08-01T04:36:41;12.50;;;7.75;;
18304;SDS011;9278;52.156;21.048;2022-08-01T04:39:11;13.35;;;7.97;;
18304;SDS011;9278;52.156;21.048;2022-08-01T04:41:41;14.85;;;7.78;;
18304;SDS011;9278;52.156;21.048;2022-08-01T04:44:09;11.15;;;7.35;;
18304;SDS011;9278;52.156;21.048;2022-08-01T04:46:37;12.20;;;7.55;;
18304;SDS011;9278;52.156;21.048;2022-08-01T04:49:07;15.98;;;7.60;;
18304;SDS011;9278;52.156;21.048;2022-08-01T04:51:48;10.45;;;7.18;;
18304;SDS011;9278;52.156;21.048;2022-08-01T04:54:17;17.90;;;7.85;;
18304;SDS011;9278;52.156;21.048;2022-08-01T04:56:47;11.40;;;7.57;;
18304;SDS011;9278;52.156;21.048;2022-08-01T04:59:17;12.98;;;7.50;;
18304;SDS011;9278;52.156;21.048;2022-08-01T05:02:04;17.98;;;7.32;;
18304;SDS011;9278;52.156;21.048;2022-08-01T05:04:33;19.90;;;7.05;;
18304;SDS011;9278;52.156;21.048;2022-08-01T05:07:01;10.57;;;7.35;;
18304;SDS011;9278;52.156;21.048;2022-08-01T05:09:29;13.77;;;6.90;;
18304;SDS011;9278;52.156;21.048;2022-08-01T05:11:58;12.02;;;6.30;;
18304;SDS011;9278;52.156;21.048;2022-08-01T05:14:28;12.68;;;7.45;;
18304;SDS011;9278;52.156;21.048;2022-08-01T05:16:58;16.55;;;7.10;;
18304;SDS011;9278;52.156;21.048;2022-08-01T05:19:31;13.88;;;8.25;;
18304;SDS011;9278;52.156;21.048;2022-08-01T05:22:00;11.05;;;8.07;;
18304;SDS011;9278;52.156;21.048;2022-08-01T05:24:31;14.80;;;8.57;;
18304;SDS011;9278;52.156;21.048;2022-08-01T05:27:01;13.95;;;9.07;;
18304;SDS011;9278;52.156;21.048;2022-08-01T05:29:29;16.23;;;8.98;;
18304;SDS011;9278;52.156;21.048;2022-08-01T05:31:58;17.40;;;9.20;;
18304;SDS011;9278;52.156;21.048;2022-08-01T05:34:26;13.05;;;9.07;;
18304;SDS011;9278;52.156;21.048;2022-08-01T05:36:56;13.05;;;9.38;;
18304;SDS011;9278;52.156;21.048;2022-08-01T05:39:24;14.80;;;8.75;;
18304;SDS011;9278;52.156;21.048;2022-08-01T05:41:52;16.15;;;9.20;;
18304;SDS011;9278;52.156;21.048;2022-08-01T05:44:21;12.95;;;9.13;;
18304;SDS011;9278;52.156;21.048;2022-08-01T05:46:49;15.90;;;9.23;;
18304;SDS011;9278;52.156;21.048;2022-08-01T05:49:17;18.13;;;10.77;;
18304;SDS011;9278;52.156;21.048;2022-08-01T05:51:45;19.83;;;10.15;;
18304;SDS011;9278;52.156;21.048;2022-08-01T05:54:15;21.27;;;11.52;;
18304;SDS011;9278;52.156;21.048;2022-08-01T05:56:43;12.50;;;9.98;;
18304;SDS011;9278;52.156;21.048;2022-08-01T05:59:11;12.95;;;10.20;;
18304;SDS011;9278;52.156;21.048;2022-08-01T06:01:39;16.95;;;11.45;;
18304;SDS011;9278;52.156;21.048;2022-08-01T06:04:10;15.73;;;10.07;;
18304;SDS011;9278;52.156;21.048;2022-08-01T06:06:38;15.48;;;10.88;;
18304;SDS011;9278;52.156;21.048;2022-08-01T06:09:06;17.77;;;10.65;;
18304;SDS011;9278;52.156;21.048;2022-08-01T06:11:35;14.80;;;9.30;;
18304;SDS011;9278;52.156;21.048;2022-08-01T06:14:03;11.95;;;8.93;;
18304;SDS011;9278;52.156;21.048;2022-08-01T06:16:32;13.05;;;8.75;;
18304;SDS011;9278;52.156;21.048;2022-08-01T06:19:00;18.42;;;8.80;;
18304;SDS011;9278;52.156;21.048;2022-08-01T06:21:28;12.48;;;7.43;;
18304;SDS011;9278;52.156;21.048;2022-08-01T06:23:56;11.02;;;7.90;;
18304;SDS011;9278;52.156;21.048;2022-08-01T06:26:24;13.40;;;7.78;;
18304;SDS011;9278;52.156;21.048;2022-08-01T06:28:54;12.75;;;7.32;;
18304;SDS011;9278;52.156;21.048;2022-08-01T06:31:22;8.73;;;6.35;;
18304;SDS011;9278;52.156;21.048;2022-08-01T06:33:50;12.90;;;6.05;;
18304;SDS011;9278;52.156;21.048;2022-08-01T06:36:18;10.00;;;6.28;;
18304;SDS011;9278;52.156;21.048;2022-08-01T06:38:46;10.75;;;6.28;;
18304;SDS011;9278;52.156;21.048;2022-08-01T06:41:14;10.43;;;5.82;;
18304;SDS011;9278;52.156;21.048;2022-08-01T06:43:43;8.95;;;5.35;;
18304;SDS011;9278;52.156;21.048;2022-08-01T06:46:12;15.07;;;5.47;;
18304;SDS011;9278;52.156;21.048;2022-08-01T06:48:40;10.75;;;5.43;;
18304;SDS011;9278;52.156;21.048;2022-08-01T06:51:09;8.50;;;5.20;;
18304;SDS011;9278;52.156;21.048;2022-08-01T06:53:40;6.80;;;5.20;;
18304;SDS011;9278;52.156;21.048;2022-08-01T06:56:10;12.10;;;5.57;;
18304;SDS011;9278;52.156;21.048;2022-08-01T06:58:38;11.48;;;5.60;;
18304;SDS011;9278;52.156;21.048;2022-08-01T07:01:06;10.77;;;5.55;;
18304;SDS011;9278;52.156;21.048;2022-08-01T07:03:37;7.97;;;4.68;;
18304;SDS011;9278;52.156;21.048;2022-08-01T07:06:19;10.40;;;4.70;;
18304;SDS011;9278;52.156;21.048;2022-08-01T07:08:48;13.23;;;4.53;;
18304;SDS011;9278;52.156;21.048;2022-08-01T07:11:16;9.35;;;4.43;;
18304;SDS011;9278;52.156;21.048;2022-08-01T07:13:44;13.52;;;6.07;;
18304;SDS011;9278;52.156;21.048;2022-08-01T07:16:12;5.47;;;3.80;;
18304;SDS011;9278;52.156;21.048;2022-08-01T07:18:42;6.00;;;3.67;;
18304;SDS011;9278;52.156;21.048;2022-08-01T07:21:10;13.40;;;3.53;;
18304;SDS011;9278;52.156;21.048;2022-08-01T07:23:59;5.68;;;3.42;;
18304;SDS011;9278;52.156;21.048;2022-08-01T07:26:27;11.90;;;3.85;;
18304;SDS011;9278;52.156;21.048;2022-08-01T07:28:55;7.30;;;3.60;;
18304;SDS011;9278;52.156;21.048;2022-08-01T07:31:23;3.88;;;2.90;;
18304;SDS011;9278;52.156;21.048;2022-08-01T07:33:58;8.25;;;3.00;;
18304;SDS011;9278;52.156;21.048;2022-08-01T07:36:27;8.98;;;3.53;;
18304;SDS011;9278;52.156;21.048;2022-08-01T07:38:55;4.15;;;3.22;;
18304;SDS011;9278;52.156;21.048;2022-08-01T07:41:23;6.60;;;3.13;;
18304;SDS011;9278;52.156;21.048;2022-08-01T07:44:11;5.00;;;3.00;;
18304;SDS011;9278;52.156;21.048;2022-08-01T07:46:40;7.38;;;2.65;;
18304;SDS011;9278;52.156;21.048;2022-08-01T07:49:10;8.70;;;2.67;;
18304;SDS011;9278;52.156;21.048;2022-08-01T07:51:38;6.22;;;2.95;;
18304;SDS011;9278;52.156;21.048;2022-08-01T07:54:06;4.75;;;2.42;;
18304;SDS011;9278;52.156;21.048;2022-08-01T07:56:34;4.13;;;2.60;;
18304;SDS011;9278;52.156;21.048;2022-08-01T07:59:03;6.82;;;2.50;;
18304;SDS011;9278;52.156;21.048;2022-08-01T08:01:31;6.90;;;2.30;;
18304;SDS011;9278;52.156;21.048;2022-08-01T08:03:59;2.85;;;2.15;;
18304;SDS011;9278;52.156;21.048;2022-08-01T08:06:28;3.15;;;2.38;;
18304;SDS011;9278;52.156;21.048;2022-08-01T08:08:56;2.88;;;2.10;;
18304;SDS011;9278;52.156;21.048;2022-08-01T08:11:24;5.35;;;2.38;;
18304;SDS011;9278;52.156;21.048;2022-08-01T08:13:55;4.72;;;2.70;;
18304;SDS011;9278;52.156;21.048;2022-08-01T08:16:23;5.97;;;2.63;;
18304;SDS011;9278;52.156;21.048;2022-08-01T08:18:52;6.32;;;2.30;;
18304;SDS011;9278;52.156;21.048;2022-08-01T08:21:21;3.58;;;1.95;;
18304;SDS011;9278;52.156;21.048;2022-08-01T08:23:50;4.00;;;2.20;;
18304;SDS011;9278;52.156;21.048;2022-08-01T08:26:37;4.90;;;1.90;;
18304;SDS011;9278;52.156;21.048;2022-08-01T08:29:07;3.63;;;2.13;;
18304;SDS011;9278;52.156;21.048;2022-08-01T08:31:35;3.63;;;1.83;;
18304;SDS011;9278;52.156;21.048;2022-08-01T08:34:18;3.45;;;1.70;;
18304;SDS011;9278;52.156;21.048;2022-08-01T08:36:47;4.65;;;1.80;;
18304;SDS011;9278;52.156;21.048;2022-08-01T08:39:17;4.40;;;1.73;;
18304;SDS011;9278;52.156;21.048;2022-08-01T08:41:46;3.63;;;1.80;;
18304;SDS011;9278;52.156;21.048;2022-08-01T08:44:15;5.75;;;2.42;;
18304;SDS011;9278;52.156;21.048;2022-08-01T08:46:47;4.90;;;1.70;;
18304;SDS011;9278;52.156;21.048;2022-08-01T08:49:18;2.95;;;1.83;;
18304;SDS011;9278;52.156;21.048;2022-08-01T08:51:49;2.75;;;1.70;;
18304;SDS011;9278;52.156;21.048;2022-08-01T08:54:21;4.38;;;1.90;;
18304;SDS011;9278;52.156;21.048;2022-08-01T08:56:57;5.72;;;1.98;;
18304;SDS011;9278;52.156;21.048;2022-08-01T08:59:26;5.70;;;1.90;;
18304;SDS011;9278;52.156;21.048;2022-08-01T09:01:55;4.57;;;2.10;;
18304;SDS011;9278;52.156;21.048;2022-08-01T09:04:24;3.58;;;2.05;;
18304;SDS011;9278;52.156;21.048;2022-08-01T09:06:53;6.90;;;2.00;;
18304;SDS011;9278;52.156;21.048;2022-08-01T09:09:23;3.50;;;1.88;;
18304;SDS011;9278;52.156;21.048;2022-08-01T09:11:51;7.00;;;2.45;;
18304;SDS011;9278;52.156;21.048;2022-08-01T09:14:23;2.83;;;1.80;;
18304;SDS011;9278;52.156;21.048;2022-08-01T09:17:00;6.78;;;2.10;;
18304;SDS011;9278;52.156;21.048;2022-08-01T09:19:34;2.58;;;1.88;;
18304;SDS011;9278;52.156;21.048;2022-08-01T09:22:06;4.95;;;1.80;;
18304;SDS011;9278;52.156;21.048;2022-08-01T09:24:37;2.65;;;1.80;;
18304;SDS011;9278;52.156;21.048;2022-08-01T09:27:14;3.10;;;1.85;;
18304;SDS011;9278;52.156;21.048;2022-08-01T09:29:47;6.65;;;1.90;;
18304;SDS011;9278;52.156;21.048;2022-08-01T09:32:28;6.22;;;2.40;;
18304;SDS011;9278;52.156;21.048;2022-08-01T09:38:15;5.40;;;2.13;;
18304;SDS011;9278;52.156;21.048;2022-08-01T09:40:47;3.65;;;1.90;;
18304;SDS011;9278;52.156;21.048;2022-08-01T09:43:18;6.25;;;2.42;;
18304;SDS011;9278;52.156;21.048;2022-08-01T09:45:47;4.22;;;2.05;;
18304;SDS011;9278;52.156;21.048;2022-08-01T09:48:19;7.47;;;2.03;;
18304;SDS011;9278;52.156;21.048;2022-08-01T09:50:53;4.40;;;2.10;;
18304;SDS011;9278;52.156;21.048;2022-08-01T09:53:45;6.00;;;2.30;;
18304;SDS011;9278;52.156;21.048;2022-08-01T09:56:19;5.20;;;2.33;;
18304;SDS011;9278;52.156;21.048;2022-08-01T09:58:50;7.40;;;2.20;;
18304;SDS011;9278;52.156;21.048;2022-08-01T10:01:25;3.85;;;1.75;;
18304;SDS011;9278;52.156;21.048;2022-08-01T10:04:06;3.97;;;2.22;;
18304;SDS011;9278;52.156;21.048;2022-08-01T10:06:37;3.22;;;2.40;;
18304;SDS011;9278;52.156;21.048;2022-08-01T10:09:07;6.18;;;2.33;;
18304;SDS011;9278;52.156;21.048;2022-08-01T10:11:37;6.15;;;2.10;;
18304;SDS011;9278;52.156;21.048;2022-08-01T10:14:07;5.90;;;2.20;;
18304;SDS011;9278;52.156;21.048;2022-08-01T10:16:36;5.18;;;2.05;;
18304;SDS011;9278;52.156;21.048;2022-08-01T10:19:05;3.97;;;1.92;;
18304;SDS011;9278;52.156;21.048;2022-08-01T10:21:40;3.78;;;1.92;;
18304;SDS011;9278;52.156;21.048;2022-08-01T10:24:24;4.72;;;1.90;;
18304;SDS011;9278;52.156;21.048;2022-08-01T10:26:56;7.43;;;1.90;;
18304;SDS011;9278;52.156;21.048;2022-08-01T10:29:35;5.45;;;2.00;;
18304;SDS011;9278;52.156;21.048;2022-08-01T10:32:12;5.40;;;2.10;;
18304;SDS011;9278;52.156;21.048;2022-08-01T10:34:40;3.53;;;2.05;;
18304;SDS011;9278;52.156;21.048;2022-08-01T10:37:10;4.55;;;2.08;;
18304;SDS011;9278;52.156;21.048;2022-08-01T10:39:41;2.97;;;2.40;;
18304;SDS011;9278;52.156;21.048;2022-08-01T10:42:11;4.90;;;2.25;;
18304;SDS011;9278;52.156;21.048;2022-08-01T10:44:41;5.40;;;2.00;;
18304;SDS011;9278;52.156;21.048;2022-08-01T10:47:15;4.20;;;2.30;;
18304;SDS011;9278;52.156;21.048;2022-08-01T10:49:53;3.90;;;2.13;;
18304;SDS011;9278;52.156;21.048;2022-08-01T10:52:29;5.15;;;2.05;;
18304;SDS011;9278;52.156;21.048;2022-08-01T10:55:05;6.03;;;2.42;;
18304;SDS011;9278;52.156;21.048;2022-08-01T10:57:42;5.70;;;2.20;;
18304;SDS011;9278;52.156;21.048;2022-08-01T11:00:18;3.53;;;2.25;;
18304;SDS011;9278;52.156;21.048;2022-08-01T11:02:57;5.85;;;2.35;;
18304;SDS011;9278;52.156;21.048;2022-08-01T11:05:28;3.05;;;2.03;;
18304;SDS011;9278;52.156;21.048;2022-08-01T11:08:01;6.65;;;2.30;;
18304;SDS011;9278;52.156;21.048;2022-08-01T11:10:33;6.35;;;2.20;;
18304;SDS011;9278;52.156;21.048;2022-08-01T11:13:06;7.88;;;2.28;;
18304;SDS011;9278;52.156;21.048;2022-08-01T11:15:35;3.88;;;2.20;;
18304;SDS011;9278;52.156;21.048;2022-08-01T11:18:28;7.43;;;1.95;;
18304;SDS011;9278;52.156;21.048;2022-08-01T11:20:58;5.47;;;2.22;;
18304;SDS011;9278;52.156;21.048;2022-08-01T11:23:48;4.60;;;2.30;;
18304;SDS011;9278;52.156;21.048;2022-08-01T11:26:18;8.52;;;2.45;;
18304;SDS011;9278;52.156;21.048;2022-08-01T11:31:48;5.18;;;2.30;;
18304;SDS011;9278;52.156;21.048;2022-08-01T11:34:18;9.45;;;2.33;;
18304;SDS011;9278;52.156;21.048;2022-08-01T11:36:47;4.57;;;2.10;;
18304;SDS011;9278;52.156;21.048;2022-08-01T11:39:30;8.48;;;2.00;;
18304;SDS011;9278;52.156;21.048;2022-08-01T11:42:17;3.47;;;1.98;;
18304;SDS011;9278;52.156;21.048;2022-08-01T11:44:50;6.45;;;2.05;;
18304;SDS011;9278;52.156;21.048;2022-08-01T11:52:58;4.15;;;2.20;;
18304;SDS011;9278;52.156;21.048;2022-08-01T11:55:27;7.22;;;2.03;;
18304;SDS011;9278;52.156;21.048;2022-08-01T11:58:00;8.07;;;2.15;;
18304;SDS011;9278;52.156;21.048;2022-08-01T12:00:32;3.85;;;1.90;;
18304;SDS011;9278;52.156;21.048;2022-08-01T12:03:02;4.53;;;2.00;;
18304;SDS011;9278;52.156;21.048;2022-08-01T12:05:34;4.72;;;1.98;;
18304;SDS011;9278;52.156;21.048;2022-08-01T12:08:08;2.95;;;2.40;;
18304;SDS011;9278;52.156;21.048;2022-08-01T12:10:36;6.85;;;2.70;;
18304;SDS011;9278;52.156;21.048;2022-08-01T12:13:15;6.35;;;2.40;;
18304;SDS011;9278;52.156;21.048;2022-08-01T12:15:47;6.43;;;2.65;;
18304;SDS011;9278;52.156;21.048;2022-08-01T12:18:21;5.75;;;3.20;;
18304;SDS011;9278;52.156;21.048;2022-08-01T12:20:50;7.40;;;3.35;;
18304;SDS011;9278;52.156;21.048;2022-08-01T12:23:22;7.53;;;3.08;;
18304;SDS011;9278;52.156;21.048;2022-08-01T12:25:51;4.47;;;3.67;;
18304;SDS011;9278;52.156;21.048;2022-08-01T12:28:20;8.13;;;3.70;;
18304;SDS011;9278;52.156;21.048;2022-08-01T12:30:50;4.47;;;3.17;;
18304;SDS011;9278;52.156;21.048;2022-08-01T12:33:20;8.25;;;3.30;;
18304;SDS011;9278;52.156;21.048;2022-08-01T12:35:48;4.82;;;3.38;;
18304;SDS011;9278;52.156;21.048;2022-08-01T12:38:16;5.57;;;3.80;;
18304;SDS011;9278;52.156;21.048;2022-08-01T12:40:49;6.63;;;3.67;;
18304;SDS011;9278;52.156;21.048;2022-08-01T12:43:20;7.13;;;3.45;;
18304;SDS011;9278;52.156;21.048;2022-08-01T12:45:56;5.28;;;3.80;;
18304;SDS011;9278;52.156;21.048;2022-08-01T12:48:27;7.45;;;3.78;;
18304;SDS011;9278;52.156;21.048;2022-08-01T12:50:58;7.00;;;3.92;;
18304;SDS011;9278;52.156;21.048;2022-08-01T12:53:28;5.65;;;3.80;;
18304;SDS011;9278;52.156;21.048;2022-08-01T12:56:07;8.98;;;3.83;;
18304;SDS011;9278;52.156;21.048;2022-08-01T12:58:36;5.38;;;3.58;;
18304;SDS011;9278;52.156;21.048;2022-08-01T13:01:06;4.00;;;3.50;;
18304;SDS011;9278;52.156;21.048;2022-08-01T13:03:36;4.85;;;3.75;;
18304;SDS011;9278;52.156;21.048;2022-08-01T13:06:09;9.05;;;4.03;;
18304;SDS011;9278;52.156;21.048;2022-08-01T13:08:39;4.90;;;4.03;;
18304;SDS011;9278;52.156;21.048;2022-08-01T13:11:08;4.57;;;3.50;;
18304;SDS011;9278;52.156;21.048;2022-08-01T13:13:41;6.93;;;3.80;;
18304;SDS011;9278;52.156;21.048;2022-08-01T13:16:16;3.92;;;3.40;;
18304;SDS011;9278;52.156;21.048;2022-08-01T13:18:59;5.72;;;3.10;;
18304;SDS011;9278;52.156;21.048;2022-08-01T13:21:28;3.58;;;2.90;;
18304;SDS011;9278;52.156;21.048;2022-08-01T13:24:22;6.25;;;3.40;;
18304;SDS011;9278;52.156;21.048;2022-08-01T13:26:51;6.93;;;3.30;;
18304;SDS011;9278;52.156;21.048;2022-08-01T13:29:28;5.10;;;3.42;;
18304;SDS011;9278;52.156;21.048;2022-08-01T13:31:58;3.95;;;3.10;;
18304;SDS011;9278;52.156;21.048;2022-08-01T13:34:30;7.53;;;3.38;;
18304;SDS011;9278;52.156;21.048;2022-08-01T13:36:59;4.13;;;3.50;;
18304;SDS011;9278;52.156;21.048;2022-08-01T13:39:33;5.00;;;3.45;;
18304;SDS011;9278;52.156;21.048;2022-08-01T13:42:12;7.43;;;3.10;;
18304;SDS011;9278;52.156;21.048;2022-08-01T13:44:44;5.43;;;3.00;;
18304;SDS011;9278;52.156;21.048;2022-08-01T13:47:14;6.10;;;2.92;;
18304;SDS011;9278;52.156;21.048;2022-08-01T13:49:42;4.00;;;2.72;;
18304;SDS011;9278;52.156;21.048;2022-08-01T13:52:10;4.93;;;2.97;;
18304;SDS011;9278;52.156;21.048;2022-08-01T13:54:39;4.57;;;2.65;;
18304;SDS011;9278;52.156;21.048;2022-08-01T13:57:07;7.90;;;3.38;;
18304;SDS011;9278;52.156;21.048;2022-08-01T13:59:35;5.60;;;2.97;;
18304;SDS011;9278;52.156;21.048;2022-08-01T14:02:04;7.00;;;3.30;;
18304;SDS011;9278;52.156;21.048;2022-08-01T14:04:34;10.10;;;3.00;;
18304;SDS011;9278;52.156;21.048;2022-08-01T14:07:02;5.78;;;2.97;;
18304;SDS011;9278;52.156;21.048;2022-08-01T14:09:39;4.20;;;2.45;;
18304;SDS011;9278;52.156;21.048;2022-08-01T14:12:29;5.32;;;2.72;;
18304;SDS011;9278;52.156;21.048;2022-08-01T14:14:58;3.88;;;2.10;;
18304;SDS011;9278;52.156;21.048;2022-08-01T14:17:26;3.47;;;2.38;;
18304;SDS011;9278;52.156;21.048;2022-08-01T14:19:55;6.93;;;2.22;;
18304;SDS011;9278;52.156;21.048;2022-08-01T14:22:25;6.55;;;2.38;;
18304;SDS011;9278;52.156;21.048;2022-08-01T14:24:53;4.57;;;2.40;;
18304;SDS011;9278;52.156;21.048;2022-08-01T14:27:27;4.85;;;2.15;;
18304;SDS011;9278;52.156;21.048;2022-08-01T14:29:57;5.68;;;2.38;;
18304;SDS011;9278;52.156;21.048;2022-08-01T14:32:29;5.13;;;2.78;;
18304;SDS011;9278;52.156;21.048;2022-08-01T14:35:00;2.63;;;2.25;;
18304;SDS011;9278;52.156;21.048;2022-08-01T14:37:29;3.53;;;2.28;;
18304;SDS011;9278;52.156;21.048;2022-08-01T14:40:04;4.50;;;2.08;;
18304;SDS011;9278;52.156;21.048;2022-08-01T14:42:35;3.88;;;2.30;;
18304;SDS011;9278;52.156;21.048;2022-08-01T14:45:05;2.65;;;1.83;;
18304;SDS011;9278;52.156;21.048;2022-08-01T14:47:35;3.60;;;1.88;;
18304;SDS011;9278;52.156;21.048;2022-08-01T14:50:06;2.75;;;1.88;;
18304;SDS011;9278;52.156;21.048;2022-08-01T14:52:36;3.25;;;2.03;;
18304;SDS011;9278;52.156;21.048;2022-08-01T14:55:05;3.10;;;1.80;;
18304;SDS011;9278;52.156;21.048;2022-08-01T14:57:35;2.90;;;2.15;;
18304;SDS011;9278;52.156;21.048;2022-08-01T15:00:04;6.95;;;2.03;;
18304;SDS011;9278;52.156;21.048;2022-08-01T15:02:36;6.63;;;2.22;;
18304;SDS011;9278;52.156;21.048;2022-08-01T15:05:06;3.10;;;2.08;;
18304;SDS011;9278;52.156;21.048;2022-08-01T15:07:34;5.28;;;2.10;;
18304;SDS011;9278;52.156;21.048;2022-08-01T15:10:17;7.68;;;2.00;;
18304;SDS011;9278;52.156;21.048;2022-08-01T15:12:45;2.75;;;1.80;;
18304;SDS011;9278;52.156;21.048;2022-08-01T15:15:16;10.23;;;2.13;;
18304;SDS011;9278;52.156;21.048;2022-08-01T15:17:45;5.20;;;1.98;;
18304;SDS011;9278;52.156;21.048;2022-08-01T15:20:15;3.90;;;2.10;;